This is the latest recevied weather packets stored in our database for station/object KA3RQR. If no packets are shown the sender has not sent any weather packets the latest 10 day(s).
| Time | Temp. | Humidity | Pressure | Rain* | Wind** | Luminosity | Snow |
|---|---|---|---|---|---|---|---|
| 1777868624 | 6.67° C | 70% | 1016.1 hPa | 0 mm | - | 0 W/m² | - |
| 1777868017 | 6.67° C | 70% | 1015.9 hPa | 0 mm | - | 0 W/m² | - |
| 1777867713 | 6.67° C | 70% | 1015.7 hPa | 0 mm | - | 0 W/m² | - |
| 1777867411 | 6.67° C | 70% | 1015.8 hPa | 0 mm | - | 0 W/m² | - |
| 1777867106 | 6.67° C | 70% | 1015.9 hPa | 0 mm | - | 0 W/m² | - |
| 1777866805 | 6.67° C | 70% | 1016.1 hPa | 0 mm | - | 0 W/m² | - |
| 1777865896 | 6.67° C | 69% | 1015.9 hPa | 0 mm | - | 0 W/m² | - |
| 1777865594 | 6.67° C | 69% | 1016.1 hPa | 0 mm | - | 0 W/m² | - |
| 1777865290 | 6.67° C | 70% | 1015.9 hPa | 0 mm | - | 0 W/m² | - |
| 1777864684 | 7.22° C | 70% | 1015.8 hPa | 0 mm | - | 0 W/m² | - |
| 1777863168 | 7.22° C | 69% | 1015.7 hPa | 0 mm | - | 0 W/m² | - |
| 1777847405 | 17.22° C | 30% | 1014.3 hPa | 0 mm | - | 141 W/m² | - |
| 1777846801 | 17.22° C | 33% | 1014.4 hPa | 0 mm | - | 174 W/m² | - |
| 1777845286 | 17.78° C | 30% | 1014.4 hPa | 0 mm | - | 253 W/m² | - |
| 1777844077 | 17.22° C | 29% | 1014.5 hPa | 0 mm | - | 314 W/m² | - |
| 1777842256 | 17.22° C | 31% | 1014.4 hPa | 0 mm | - | 416 W/m² | - |
| 1777841951 | 17.78° C | 31% | 1014.4 hPa | 0 mm | - | 448 W/m² | - |
| 1777841042 | 17.78° C | 30% | 1014.6 hPa | 0 mm | - | 468 W/m² | - |
| 1777840739 | 17.78° C | 31% | 1014.7 hPa | 0 mm | - | 522 W/m² | - |
| 1777840133 | 17.78° C | 30% | 1014.7 hPa | 0 mm | - | 521 W/m² | - |
| 1777839831 | 16.67° C | 32% | 1014.8 hPa | 0 mm | - | 519 W/m² | - |
| 1777839226 | 16.67° C | 33% | 1014.9 hPa | 0 mm | - | 544 W/m² | - |
| 1777838013 | 17.22° C | 39% | 1015.3 hPa | 0 mm | - | 616 W/m² | - |
| 1777836799 | 16.67° C | 33% | 1015.4 hPa | 0 mm | - | 554 W/m² | - |
| 1777836495 | 16.11° C | 36% | 1015.5 hPa | 0 mm | - | 589 W/m² | - |
* Rain latest hour (hover to see other rain measurements)
** Current wind speed in m/s (hover to see current wind gust speed)